createdAt,value
2023-12-28T00:00:24.825Z,1003.86
2023-12-28T00:01:24.876Z,1003.88
2023-12-28T00:02:24.966Z,1003.85
2023-12-28T00:03:25.054Z,1003.90
2023-12-28T00:04:25.140Z,1003.82
2023-12-28T00:05:25.279Z,1003.86
2023-12-28T00:06:25.325Z,1003.80
2023-12-28T00:07:25.352Z,1003.87
2023-12-28T00:08:25.416Z,1003.85
2023-12-28T00:09:25.517Z,1003.86
2023-12-28T00:10:25.582Z,1003.87
2023-12-28T00:11:25.622Z,1003.77
2023-12-28T00:12:25.762Z,1003.74
2023-12-28T00:13:25.927Z,1003.73
2023-12-28T00:14:25.897Z,1003.83
2023-12-28T00:15:26.067Z,1003.84
2023-12-28T00:16:26.075Z,1003.87
2023-12-28T00:17:26.195Z,1003.93
2023-12-28T00:18:26.347Z,1003.97
2023-12-28T00:19:26.333Z,1003.93
2023-12-28T00:20:26.380Z,1003.95
2023-12-28T00:21:26.445Z,1003.86
2023-12-28T00:22:26.523Z,1003.82
2023-12-28T00:23:26.570Z,1003.83
2023-12-28T00:24:26.669Z,1003.89
2023-12-28T00:25:26.705Z,1003.87
2023-12-28T00:26:26.846Z,1003.88
2023-12-28T00:27:26.901Z,1003.88
2023-12-28T00:28:26.950Z,1003.92
2023-12-28T00:29:27.015Z,1003.77
2023-12-28T00:30:27.150Z,1003.81
2023-12-28T00:31:27.326Z,1003.81
2023-12-28T00:32:27.327Z,1003.82
2023-12-28T00:33:27.377Z,1003.81
2023-12-28T00:34:27.553Z,1003.75
2023-12-28T00:35:27.469Z,1003.79
2023-12-28T00:36:27.602Z,1003.83
2023-12-28T00:37:27.640Z,1003.77
2023-12-28T00:38:28.032Z,1003.81
2023-12-28T00:39:27.824Z,1003.80
2023-12-28T00:40:27.878Z,1003.90
2023-12-28T00:41:27.944Z,1003.88
2023-12-28T00:42:28.076Z,1004.05
2023-12-28T00:43:28.117Z,1003.87
2023-12-28T00:44:28.203Z,1003.90
2023-12-28T00:45:28.271Z,1003.93
2023-12-28T00:46:28.329Z,1003.84
2023-12-28T00:47:28.479Z,1003.80
2023-12-28T00:48:28.585Z,1003.90
2023-12-28T00:49:28.679Z,1003.90
2023-12-28T00:50:28.696Z,1003.81
2023-12-28T00:51:28.749Z,1003.83
2023-12-28T00:52:28.842Z,1003.90
2023-12-28T00:53:28.977Z,1003.88
2023-12-28T00:54:29.260Z,1003.94
2023-12-28T00:55:29.122Z,1003.88
2023-12-28T00:56:29.152Z,1004.04
2023-12-28T00:57:29.294Z,1004.01
2023-12-28T00:58:29.319Z,1004.10
2023-12-28T00:59:29.367Z,1003.95
2023-12-28T01:00:29.496Z,1003.87
2023-12-28T01:01:29.572Z,1004.03
2023-12-28T01:02:29.663Z,1004.08
2023-12-28T01:03:29.831Z,1003.97
2023-12-28T01:04:29.991Z,1004.02
2023-12-28T01:05:30.134Z,1003.99
2023-12-28T01:06:30.281Z,1004.12
2023-12-28T01:07:30.083Z,1004.14
2023-12-28T01:08:30.132Z,1004.11
2023-12-28T01:09:30.257Z,1003.98
2023-12-28T01:10:30.342Z,1003.99
2023-12-28T01:11:30.406Z,1004.27
2023-12-28T01:12:30.509Z,1004.07
2023-12-28T01:13:30.614Z,1004.12
2023-12-28T01:14:30.669Z,1004.10
2023-12-28T01:15:30.824Z,1004.10
2023-12-28T01:16:30.894Z,1004.09
2023-12-28T01:17:31.262Z,1004.23
2023-12-28T01:18:31.118Z,1004.18
2023-12-28T01:19:31.137Z,1004.20
2023-12-28T01:20:31.171Z,1004.17
2023-12-28T01:21:31.245Z,1004.13
2023-12-28T01:22:31.310Z,1004.16
2023-12-28T01:23:31.419Z,1004.11
2023-12-28T01:24:31.472Z,1004.13
2023-12-28T01:25:31.503Z,1004.15
2023-12-28T01:26:31.634Z,1004.17
2023-12-28T01:27:31.768Z,1004.26
2023-12-28T01:28:31.804Z,1004.25
2023-12-28T01:29:31.836Z,1004.23
2023-12-28T01:30:32.094Z,1004.27
2023-12-28T01:31:32.178Z,1004.30
2023-12-28T01:32:32.132Z,1004.28
2023-12-28T01:33:32.257Z,1004.26
2023-12-28T01:34:32.310Z,1004.33
2023-12-28T01:35:32.298Z,1004.31
2023-12-28T01:36:32.413Z,1004.34
2023-12-28T01:37:32.504Z,1004.30
2023-12-28T01:38:32.584Z,1004.33
2023-12-28T01:39:32.699Z,1004.35
2023-12-28T01:40:32.766Z,1004.39
2023-12-28T01:41:32.835Z,1004.37
2023-12-28T01:42:33.110Z,1004.41
2023-12-28T01:43:32.983Z,1004.44
2023-12-28T01:44:33.150Z,1004.52
2023-12-28T01:45:33.243Z,1004.46
2023-12-28T01:46:33.270Z,1004.50
2023-12-28T01:47:33.458Z,1004.54
2023-12-28T01:48:33.547Z,1004.59
2023-12-28T01:49:33.637Z,1004.47
2023-12-28T01:50:33.601Z,1004.52
2023-12-28T01:51:33.797Z,1004.50
2023-12-28T01:52:33.790Z,1004.53
2023-12-28T01:53:33.835Z,1004.52
2023-12-28T01:54:33.964Z,1004.47
2023-12-28T01:55:33.982Z,1004.47
2023-12-28T01:56:34.074Z,1004.46
2023-12-28T01:57:34.236Z,1004.52
2023-12-28T01:58:34.205Z,1004.51
2023-12-28T01:59:34.282Z,1004.45
2023-12-28T02:00:34.494Z,1004.51
2023-12-28T02:01:34.480Z,1004.48
2023-12-28T02:02:34.527Z,1004.51
2023-12-28T02:03:34.752Z,1004.58
2023-12-28T02:04:34.896Z,1004.61
2023-12-28T02:05:34.839Z,1004.49
2023-12-28T02:06:34.968Z,1004.57
2023-12-28T02:07:34.992Z,1004.52
2023-12-28T02:08:35.053Z,1004.50
2023-12-28T02:09:35.156Z,1004.60
2023-12-28T02:10:35.249Z,1004.65
2023-12-28T02:11:35.317Z,1004.58
2023-12-28T02:12:35.423Z,1004.57
2023-12-28T02:13:35.531Z,1004.51
2023-12-28T02:14:35.570Z,1004.52
2023-12-28T02:15:35.692Z,1004.56
2023-12-28T02:16:35.728Z,1004.47
2023-12-28T02:17:35.835Z,1004.50
2023-12-28T02:18:35.958Z,1004.51
2023-12-28T02:19:35.977Z,1004.56
2023-12-28T02:20:36.065Z,1004.55
2023-12-28T02:21:36.218Z,1004.52
2023-12-28T02:22:36.259Z,1004.49
2023-12-28T02:23:36.333Z,1004.56
2023-12-28T02:24:36.443Z,1004.58
2023-12-28T02:25:36.505Z,1004.58
2023-12-28T02:26:36.626Z,1004.58
2023-12-28T02:27:36.699Z,1004.70
2023-12-28T02:28:36.730Z,1004.62
2023-12-28T02:29:36.833Z,1004.65
2023-12-28T02:30:36.990Z,1004.76
2023-12-28T02:31:37.123Z,1004.66
2023-12-28T02:32:37.250Z,1004.76
2023-12-28T02:33:37.323Z,1004.68
2023-12-28T02:34:37.273Z,1004.64
2023-12-28T02:35:37.372Z,1004.78
2023-12-28T02:36:37.426Z,1004.75
2023-12-28T02:37:37.472Z,1004.83
2023-12-28T02:38:37.561Z,1004.82
2023-12-28T02:39:37.665Z,1004.78
2023-12-28T02:40:37.690Z,1004.76
2023-12-28T02:41:37.757Z,1004.73
2023-12-28T02:42:37.881Z,1004.76
2023-12-28T02:43:37.934Z,1004.82
2023-12-28T02:44:38.001Z,1004.79
2023-12-28T02:45:38.199Z,1004.74
2023-12-28T02:46:38.178Z,1004.73
2023-12-28T02:47:38.279Z,1004.70
2023-12-28T02:48:38.483Z,1004.75
2023-12-28T02:49:38.521Z,1004.76
2023-12-28T02:50:38.487Z,1004.70
2023-12-28T02:51:38.573Z,1004.72
2023-12-28T02:52:38.620Z,1004.63
2023-12-28T02:53:38.682Z,1004.62
2023-12-28T02:54:38.803Z,1004.57
2023-12-28T02:55:38.870Z,1004.54
2023-12-28T02:56:38.947Z,1004.54
2023-12-28T02:57:39.171Z,1004.56
2023-12-28T02:58:39.094Z,1004.60
2023-12-28T02:59:39.211Z,1004.53
2023-12-28T03:00:39.427Z,1004.45
2023-12-28T03:01:39.406Z,1004.53
2023-12-28T03:02:39.563Z,1004.44
2023-12-28T03:03:39.560Z,1004.44
2023-12-28T03:04:39.584Z,1004.48
2023-12-28T03:05:39.692Z,1004.47
2023-12-28T03:06:39.877Z,1004.51
2023-12-28T03:07:39.858Z,1004.49
2023-12-28T03:08:39.896Z,1004.53
2023-12-28T03:09:40.010Z,1004.56
2023-12-28T03:10:40.067Z,1004.53
2023-12-28T03:11:40.148Z,1004.50
2023-12-28T03:12:40.258Z,1004.47
2023-12-28T03:13:40.319Z,1004.50
2023-12-28T03:14:40.371Z,1004.54
2023-12-28T03:15:40.536Z,1004.46
2023-12-28T03:16:40.537Z,1004.44
2023-12-28T03:17:40.673Z,1004.38
2023-12-28T03:18:40.781Z,1004.40
2023-12-28T03:19:40.854Z,1004.51
2023-12-28T03:20:40.869Z,1004.48
2023-12-28T03:21:40.959Z,1004.47
2023-12-28T03:22:41.024Z,1004.47
2023-12-28T03:23:41.083Z,1004.47
2023-12-28T03:24:41.195Z,1004.37
2023-12-28T03:25:41.271Z,1004.38
2023-12-28T03:26:41.355Z,1004.33
2023-12-28T03:27:41.510Z,1004.37
2023-12-28T03:28:41.484Z,1004.40
2023-12-28T03:29:41.563Z,1004.40
2023-12-28T03:30:41.718Z,1004.33
2023-12-28T03:31:42.151Z,1004.39
2023-12-28T03:32:41.836Z,1004.36
2023-12-28T03:33:41.901Z,1004.34
2023-12-28T03:34:42.012Z,1004.29
2023-12-28T03:35:42.054Z,1004.35
2023-12-28T03:36:42.129Z,1004.26
2023-12-28T03:37:42.159Z,1004.24
2023-12-28T03:38:42.224Z,1004.17
2023-12-28T03:39:42.351Z,1004.15
2023-12-28T03:40:42.382Z,1004.11
2023-12-28T03:41:42.478Z,1004.11
2023-12-28T03:42:42.574Z,1004.02
2023-12-28T03:43:42.634Z,1004.07
2023-12-28T03:44:42.863Z,1004.00
2023-12-28T03:45:42.912Z,1004.20
2023-12-28T03:46:42.883Z,1004.13
2023-12-28T03:47:43.064Z,1004.11
2023-12-28T03:48:43.278Z,1004.09
2023-12-28T03:49:43.321Z,1004.13
2023-12-28T03:50:43.221Z,1004.11
2023-12-28T03:51:43.353Z,1004.01
2023-12-28T03:52:43.432Z,1004.10
2023-12-28T03:53:43.460Z,1004.04
2023-12-28T03:54:43.590Z,1004.11
2023-12-28T03:55:43.642Z,1004.18
2023-12-28T03:56:43.715Z,1004.09
2023-12-28T03:57:44.015Z,1004.12
2023-12-28T03:58:43.867Z,1004.10
2023-12-28T03:59:43.980Z,1004.19
2023-12-28T04:00:44.244Z,1004.11
2023-12-28T04:01:44.178Z,1004.20
2023-12-28T04:02:44.194Z,1004.26
2023-12-28T04:03:44.333Z,1004.22
2023-12-28T04:04:44.363Z,1004.17
2023-12-28T04:05:44.524Z,1004.20
2023-12-28T04:06:44.566Z,1004.32
2023-12-28T04:07:44.604Z,1004.32
2023-12-28T04:08:44.707Z,1004.35
2023-12-28T04:09:44.818Z,1004.26
2023-12-28T04:10:44.845Z,1004.24
2023-12-28T04:11:44.938Z,1004.00
2023-12-28T04:12:45.046Z,1003.95
2023-12-28T04:13:45.091Z,1004.03
2023-12-28T04:14:45.170Z,1004.05
2023-12-28T04:15:45.306Z,1004.11
2023-12-28T04:16:45.521Z,1004.12
2023-12-28T04:17:45.514Z,1004.23
2023-12-28T04:18:45.669Z,1004.24
2023-12-28T04:19:45.694Z,1004.23
2023-12-28T04:20:45.639Z,1004.23
2023-12-28T04:21:45.777Z,1004.31
2023-12-28T04:22:45.804Z,1004.40
2023-12-28T04:23:45.837Z,1004.35
2023-12-28T04:24:45.956Z,1004.38
2023-12-28T04:25:46.082Z,1004.42
2023-12-28T04:26:46.076Z,1004.30
2023-12-28T04:27:46.210Z,1004.40
2023-12-28T04:28:46.471Z,1004.26
2023-12-28T04:29:46.423Z,1004.25
2023-12-28T04:30:46.455Z,1004.27
2023-12-28T04:31:46.595Z,1004.47
2023-12-28T04:32:46.619Z,1004.46
2023-12-28T04:33:46.702Z,1004.58
2023-12-28T04:34:46.812Z,1004.49
2023-12-28T04:35:46.818Z,1004.59
2023-12-28T04:36:46.917Z,1004.49
2023-12-28T04:37:46.949Z,1004.52
2023-12-28T04:38:47.036Z,1004.52
2023-12-28T04:39:47.172Z,1004.41
2023-12-28T04:40:47.196Z,1004.42
2023-12-28T04:41:47.318Z,1004.34
2023-12-28T04:42:47.404Z,1004.34
2023-12-28T04:43:47.467Z,1004.44
2023-12-28T04:44:47.596Z,1004.42
2023-12-28T04:45:47.665Z,1004.52
2023-12-28T04:46:47.697Z,1004.60
2023-12-28T04:47:47.819Z,1004.46
2023-12-28T04:48:47.966Z,1004.48
2023-12-28T04:49:47.996Z,1004.39
2023-12-28T04:50:47.997Z,1004.45
2023-12-28T04:51:48.131Z,1004.51
2023-12-28T04:52:48.171Z,1004.50
2023-12-28T04:53:48.253Z,1004.49
2023-12-28T04:54:48.346Z,1004.55
2023-12-28T04:55:48.394Z,1004.54
2023-12-28T04:56:48.501Z,1004.62
2023-12-28T04:57:48.607Z,1004.55
2023-12-28T04:58:48.652Z,1004.54
2023-12-28T04:59:48.709Z,1004.49
2023-12-28T05:00:48.861Z,1004.55
2023-12-28T05:01:48.927Z,1004.49
2023-12-28T05:02:48.944Z,1004.49
2023-12-28T05:03:49.128Z,1004.45
2023-12-28T05:04:49.366Z,1004.41
2023-12-28T05:05:49.155Z,1004.42
2023-12-28T05:06:49.194Z,1004.37
2023-12-28T05:07:49.404Z,1004.42
2023-12-28T05:08:49.354Z,1004.43
2023-12-28T05:09:49.528Z,1004.42
2023-12-28T05:10:49.497Z,1004.39
2023-12-28T05:11:49.622Z,1004.39
2023-12-28T05:12:49.695Z,1004.38
2023-12-28T05:13:49.771Z,1004.45
2023-12-28T05:14:49.835Z,1004.43
2023-12-28T05:15:49.901Z,1004.44
2023-12-28T05:16:49.990Z,1004.54
2023-12-28T05:17:50.245Z,1004.55
2023-12-28T05:18:50.256Z,1004.48
2023-12-28T05:19:50.491Z,1004.59
2023-12-28T05:20:50.317Z,1004.50
2023-12-28T05:21:50.475Z,1004.45
2023-12-28T05:22:50.485Z,1004.38
2023-12-28T05:23:50.566Z,1004.44
2023-12-28T05:24:50.666Z,1004.47
2023-12-28T05:25:50.754Z,1004.51
2023-12-28T05:26:50.764Z,1004.52
2023-12-28T05:27:50.925Z,1004.52
2023-12-28T05:28:50.924Z,1004.54
2023-12-28T05:29:51.039Z,1004.64
2023-12-28T05:30:51.155Z,1004.64
2023-12-28T05:31:51.162Z,1004.67
2023-12-28T05:32:51.323Z,1004.68
2023-12-28T05:33:51.479Z,1004.72
2023-12-28T05:34:51.459Z,1004.56
2023-12-28T05:35:51.487Z,1004.65
2023-12-28T05:36:51.649Z,1004.64
2023-12-28T05:37:51.745Z,1004.69
2023-12-28T05:38:51.736Z,1004.72
2023-12-28T05:39:51.840Z,1004.71
2023-12-28T05:40:51.846Z,1004.72
2023-12-28T05:41:51.972Z,1004.72
2023-12-28T05:42:52.194Z,1004.74
2023-12-28T05:43:52.114Z,1004.83
2023-12-28T05:44:52.152Z,1004.83
2023-12-28T05:45:52.256Z,1004.81
2023-12-28T05:46:52.306Z,1004.81
2023-12-28T05:47:52.510Z,1004.97
2023-12-28T05:48:52.563Z,1004.81
2023-12-28T05:49:52.715Z,1004.84
2023-12-28T05:50:52.608Z,1004.81
2023-12-28T05:51:52.747Z,1004.82
2023-12-28T05:52:52.835Z,1004.94
2023-12-28T05:53:52.912Z,1004.73
2023-12-28T05:54:53.117Z,1004.72
2023-12-28T05:55:53.077Z,1004.74
2023-12-28T05:56:53.135Z,1004.65
2023-12-28T05:57:53.262Z,1004.80
2023-12-28T05:58:53.288Z,1004.82
2023-12-28T05:59:53.415Z,1004.82
2023-12-28T06:00:53.492Z,1004.79
2023-12-28T06:01:53.490Z,1004.84
2023-12-28T06:02:53.545Z,1004.85
2023-12-28T06:03:53.780Z,1005.01
2023-12-28T06:04:53.916Z,1004.85
2023-12-28T06:05:53.810Z,1004.84
2023-12-28T06:06:53.951Z,1004.88
2023-12-28T06:07:53.968Z,1004.87
2023-12-28T06:08:54.062Z,1004.89
2023-12-28T06:09:54.198Z,1004.89
2023-12-28T06:10:54.214Z,1004.88
2023-12-28T06:11:54.317Z,1004.91
2023-12-28T06:12:54.443Z,1004.62
2023-12-28T06:13:54.506Z,1004.94
2023-12-28T06:14:54.589Z,1004.98
2023-12-28T06:15:54.714Z,1004.96
2023-12-28T06:16:54.717Z,1005.07
2023-12-28T06:17:54.918Z,1004.92
2023-12-28T06:18:55.007Z,1004.97
2023-12-28T06:19:55.148Z,1004.95
2023-12-28T06:20:55.020Z,1005.04
2023-12-28T06:21:55.222Z,1004.99
2023-12-28T06:22:55.167Z,1005.02
2023-12-28T06:23:55.277Z,1005.06
2023-12-28T06:24:55.381Z,1004.88
2023-12-28T06:25:55.492Z,1004.97
2023-12-28T06:26:55.466Z,1005.00
2023-12-28T06:27:55.729Z,1005.03
2023-12-28T06:28:55.606Z,1005.09
2023-12-28T06:29:55.915Z,1005.06
2023-12-28T06:30:55.890Z,1005.04
2023-12-28T06:31:55.843Z,1005.14
2023-12-28T06:32:55.969Z,1005.03
2023-12-28T06:33:56.111Z,1005.10
2023-12-28T06:34:56.111Z,1005.06
2023-12-28T06:35:56.173Z,1005.03
2023-12-28T06:36:56.285Z,1005.07
2023-12-28T06:37:56.563Z,1005.10
2023-12-28T06:38:56.386Z,1005.15
2023-12-28T06:39:56.474Z,1005.10
2023-12-28T06:40:56.503Z,1005.04
2023-12-28T06:41:56.577Z,1005.05
2023-12-28T06:42:56.828Z,1005.08
2023-12-28T06:43:56.753Z,1005.10
2023-12-28T06:44:56.807Z,1005.05
2023-12-28T06:45:56.947Z,1005.08
2023-12-28T06:46:56.951Z,1004.99
2023-12-28T06:47:57.381Z,1005.08
2023-12-28T06:48:57.139Z,1004.92
2023-12-28T06:49:57.506Z,1005.02
2023-12-28T06:50:57.250Z,1005.00
2023-12-28T06:51:57.348Z,1004.93
2023-12-28T06:52:57.389Z,1005.00
2023-12-28T06:53:57.437Z,1004.81
2023-12-28T06:54:57.561Z,1004.85
2023-12-28T06:55:57.607Z,1004.96
2023-12-28T06:56:57.708Z,1004.96
2023-12-28T06:57:58.078Z,1004.93
2023-12-28T06:58:57.866Z,1004.96
2023-12-28T06:59:57.908Z,1004.95
2023-12-28T07:00:58.107Z,1004.97
2023-12-28T07:01:58.264Z,1004.99
2023-12-28T07:02:58.161Z,1005.02
2023-12-28T07:03:58.316Z,1005.02
2023-12-28T07:04:58.349Z,1004.98
2023-12-28T07:05:58.412Z,1005.11
2023-12-28T07:06:58.632Z,1005.11
2023-12-28T07:07:58.933Z,1005.04
2023-12-28T07:08:58.682Z,1004.97
2023-12-28T07:09:58.793Z,1005.00
2023-12-28T07:10:58.878Z,1005.05
2023-12-28T07:11:58.945Z,1005.07
2023-12-28T07:12:59.014Z,1005.08
2023-12-28T07:13:59.106Z,1005.06
2023-12-28T07:14:59.181Z,1005.19
2023-12-28T07:16:00.278Z,1005.25
2023-12-28T07:16:59.307Z,1005.23
2023-12-28T07:17:59.657Z,1005.06
2023-12-28T07:18:59.624Z,1005.10
2023-12-28T07:19:59.571Z,1005.11
2023-12-28T07:20:59.642Z,1005.14
2023-12-28T07:21:59.689Z,1005.23
2023-12-28T07:22:59.734Z,1005.25
2023-12-28T07:23:59.827Z,1005.17
2023-12-28T07:24:59.949Z,1005.24
2023-12-28T07:25:59.967Z,1005.17
2023-12-28T07:27:00.046Z,1005.21
2023-12-28T07:28:00.407Z,1005.12
2023-12-28T07:29:00.182Z,1004.99
2023-12-28T07:30:00.456Z,1005.17
2023-12-28T07:31:00.463Z,1005.18
2023-12-28T07:32:00.430Z,1005.14
2023-12-28T07:33:00.560Z,1005.17
2023-12-28T07:34:00.596Z,1005.22
2023-12-28T07:35:00.665Z,1005.22
2023-12-28T07:36:00.755Z,1005.22
2023-12-28T07:37:00.909Z,1005.24
2023-12-28T07:38:01.377Z,1005.23
2023-12-28T07:39:00.958Z,1005.16
2023-12-28T07:40:01.073Z,1005.07
2023-12-28T07:41:01.093Z,1005.19
2023-12-28T07:42:01.188Z,1005.28
2023-12-28T07:43:01.292Z,1005.26
2023-12-28T07:44:01.293Z,1005.31
2023-12-28T07:45:01.376Z,1005.33
2023-12-28T07:46:01.605Z,1005.41
2023-12-28T07:47:01.544Z,1005.29
2023-12-28T07:48:01.974Z,1005.31
2023-12-28T07:49:01.941Z,1005.36
2023-12-28T07:50:01.867Z,1005.36
2023-12-28T07:51:01.910Z,1005.39
2023-12-28T07:52:02.030Z,1005.39
2023-12-28T07:53:02.084Z,1005.32
2023-12-28T07:54:02.163Z,1005.42
2023-12-28T07:55:02.341Z,1005.39
2023-12-28T07:56:04.779Z,1005.52
2023-12-28T07:57:02.417Z,1005.41
2023-12-28T07:58:02.680Z,1005.64
2023-12-28T07:59:02.546Z,1005.46
2023-12-28T08:00:02.644Z,1005.52
2023-12-28T08:01:02.850Z,1005.48
2023-12-28T08:02:02.836Z,1005.52
2023-12-28T08:03:02.860Z,1005.55
2023-12-28T08:04:03.232Z,1005.49
2023-12-28T08:05:03.034Z,1005.66
2023-12-28T08:06:03.143Z,1005.53
2023-12-28T08:07:03.285Z,1005.59
2023-12-28T08:08:03.312Z,1005.64
2023-12-28T08:09:03.394Z,1005.57
2023-12-28T08:10:03.562Z,1005.55
2023-12-28T08:11:03.576Z,1005.59
2023-12-28T08:12:03.673Z,1005.68
2023-12-28T08:13:03.796Z,1005.60
2023-12-28T08:14:03.834Z,1005.60
2023-12-28T08:15:03.988Z,1005.68
2023-12-28T08:16:04.053Z,1005.73
2023-12-28T08:17:04.058Z,1005.75
2023-12-28T08:18:04.734Z,1005.67
2023-12-28T08:19:04.379Z,1005.61
2023-12-28T08:20:04.377Z,1005.68
2023-12-28T08:21:04.377Z,1005.69
2023-12-28T08:22:04.456Z,1005.60
2023-12-28T08:23:14.406Z,1005.68
2023-12-28T08:24:04.671Z,1005.66
2023-12-28T08:25:04.768Z,1005.62
2023-12-28T08:26:04.779Z,1005.77
2023-12-28T08:27:04.866Z,1005.83
2023-12-28T08:28:04.979Z,1005.79
2023-12-28T08:29:05.050Z,1005.79
2023-12-28T08:30:05.208Z,1005.76
2023-12-28T08:31:05.343Z,1005.79
2023-12-28T08:32:05.429Z,1005.74
2023-12-28T08:33:05.761Z,1005.76
2023-12-28T08:34:11.890Z,1005.77
2023-12-28T08:35:05.695Z,1005.78
2023-12-28T08:36:05.605Z,1005.75
2023-12-28T08:37:05.821Z,1005.71
2023-12-28T08:38:05.774Z,1005.70
2023-12-28T08:39:05.864Z,1005.72
2023-12-28T08:40:05.940Z,1005.72
2023-12-28T08:41:06.020Z,1005.70
2023-12-28T08:42:06.074Z,1005.74
2023-12-28T08:43:06.144Z,1005.71
2023-12-28T08:44:06.321Z,1005.79
2023-12-28T08:45:06.280Z,1005.73
2023-12-28T08:46:06.422Z,1005.81
2023-12-28T08:47:06.479Z,1005.81
2023-12-28T08:48:06.715Z,1005.80
2023-12-28T08:49:06.714Z,1005.85
2023-12-28T08:50:06.834Z,1005.86
2023-12-28T08:51:06.804Z,1005.75
2023-12-28T08:52:07.026Z,1005.79
2023-12-28T08:53:06.959Z,1005.81
2023-12-28T08:54:07.030Z,1005.88
2023-12-28T08:55:07.270Z,1005.82
2023-12-28T08:56:07.209Z,1005.84
2023-12-28T08:57:07.275Z,1005.92
2023-12-28T08:58:07.373Z,1005.84
2023-12-28T08:59:07.422Z,1005.87
2023-12-28T09:00:07.476Z,1005.74
2023-12-28T09:01:07.653Z,1005.79
2023-12-28T09:02:07.642Z,1005.91
2023-12-28T09:03:07.792Z,1005.93
2023-12-28T09:04:07.835Z,1005.97
2023-12-28T09:05:07.901Z,1005.95
2023-12-28T09:06:07.993Z,1006.02
2023-12-28T09:07:08.110Z,1006.07
2023-12-28T09:08:08.107Z,1006.05
2023-12-28T09:09:08.185Z,1006.05
2023-12-28T09:10:08.293Z,1006.08
2023-12-28T09:11:08.362Z,1006.13
2023-12-28T09:12:08.375Z,1006.18
2023-12-28T09:13:08.433Z,1006.15
2023-12-28T09:14:08.517Z,1006.08
2023-12-28T09:15:08.633Z,1006.23
2023-12-28T09:16:08.864Z,1006.08
2023-12-28T09:17:08.800Z,1006.07
2023-12-28T09:18:08.950Z,1006.01
2023-12-28T09:19:09.168Z,1005.95
2023-12-28T09:20:09.002Z,1005.96
2023-12-28T09:21:09.106Z,1005.89
2023-12-28T09:22:09.158Z,1005.93
2023-12-28T09:23:09.237Z,1005.77
2023-12-28T09:24:09.314Z,1005.77
2023-12-28T09:25:09.368Z,1005.82
2023-12-28T09:26:09.514Z,1005.79
2023-12-28T09:27:09.526Z,1005.73
2023-12-28T09:28:09.642Z,1005.83
2023-12-28T09:29:09.670Z,1005.89
2023-12-28T09:30:09.794Z,1005.73
2023-12-28T09:31:09.863Z,1005.87
2023-12-28T09:32:09.872Z,1005.86
2023-12-28T09:33:09.954Z,1005.89
2023-12-28T09:34:10.054Z,1005.87
2023-12-28T09:35:10.107Z,1005.83
2023-12-28T09:36:10.167Z,1005.95
2023-12-28T09:37:10.228Z,1005.89
2023-12-28T09:38:10.334Z,1005.89
2023-12-28T09:39:10.434Z,1005.94
2023-12-28T09:40:10.513Z,1005.91
2023-12-28T09:41:10.606Z,1006.08
2023-12-28T09:42:10.681Z,1006.03
2023-12-28T09:43:10.807Z,1006.02
2023-12-28T09:44:10.865Z,1006.19
2023-12-28T09:45:10.951Z,1005.99
2023-12-28T09:46:11.021Z,1006.01
2023-12-28T09:47:11.078Z,1006.25
2023-12-28T09:48:11.269Z,1006.13
2023-12-28T09:49:11.267Z,1006.13
2023-12-28T09:50:11.278Z,1006.11
2023-12-28T09:51:13.465Z,1006.01
2023-12-28T09:52:11.493Z,1006.07
2023-12-28T09:53:11.504Z,1006.12
2023-12-28T09:54:11.599Z,1006.07
2023-12-28T09:55:11.758Z,1005.99
2023-12-28T09:56:11.727Z,1006.36
2023-12-28T09:57:11.809Z,1006.18
2023-12-28T09:58:11.944Z,1006.15
2023-12-28T09:59:11.957Z,1006.21
2023-12-28T10:00:12.026Z,1006.18
2023-12-28T10:01:12.386Z,1006.26
2023-12-28T10:02:12.157Z,1006.29
2023-12-28T10:03:12.368Z,1006.21
2023-12-28T10:04:12.366Z,1006.22
2023-12-28T10:05:12.413Z,1006.32
2023-12-28T10:06:12.569Z,1006.32
2023-12-28T10:07:12.627Z,1006.25
2023-12-28T10:08:12.621Z,1006.28
2023-12-28T10:09:12.715Z,1006.28
2023-12-28T10:10:12.782Z,1006.22
2023-12-28T10:11:12.805Z,1006.22
2023-12-28T10:12:12.886Z,1006.20
2023-12-28T10:13:13.001Z,1006.21
2023-12-28T10:14:13.712Z,1006.18
2023-12-28T10:15:13.160Z,1006.25
2023-12-28T10:16:13.217Z,1006.24
2023-12-28T10:17:13.318Z,1006.17
2023-12-28T10:18:13.766Z,1006.13
2023-12-28T10:19:13.570Z,1006.07
2023-12-28T10:20:13.555Z,1006.26
2023-12-28T10:21:13.670Z,1006.18
2023-12-28T10:22:13.694Z,1006.18
2023-12-28T10:23:13.764Z,1006.28
2023-12-28T10:24:13.898Z,1006.17
2023-12-28T10:25:13.952Z,1006.20
2023-12-28T10:26:13.987Z,1006.24
2023-12-28T10:27:14.023Z,1006.14
2023-12-28T10:28:14.123Z,1006.21
2023-12-28T10:29:14.171Z,1006.19
2023-12-28T10:30:14.363Z,1006.28
2023-12-28T10:31:14.421Z,1006.16
2023-12-28T10:32:14.384Z,1006.22
2023-12-28T10:33:14.586Z,1006.13
2023-12-28T10:34:14.663Z,1006.16
2023-12-28T10:35:14.645Z,1006.18
2023-12-28T10:36:14.707Z,1006.19
2023-12-28T10:37:14.750Z,1006.22
2023-12-28T10:38:14.855Z,1006.22
2023-12-28T10:39:14.896Z,1006.13
2023-12-28T10:40:15.002Z,1006.09
2023-12-28T10:41:15.373Z,1006.20
2023-12-28T10:42:15.158Z,1006.12
2023-12-28T10:43:15.252Z,1006.38
2023-12-28T10:44:15.311Z,1006.17
2023-12-28T10:45:15.390Z,1006.20
2023-12-28T10:46:15.462Z,1006.10
2023-12-28T10:47:15.512Z,1006.17
2023-12-28T10:48:15.654Z,1006.10
2023-12-28T10:49:15.869Z,1006.15
2023-12-28T10:50:15.885Z,1006.20
2023-12-28T10:51:15.822Z,1006.08
2023-12-28T10:52:15.899Z,1006.18
2023-12-28T10:53:15.944Z,1006.21
2023-12-28T10:54:16.030Z,1006.12
2023-12-28T10:55:18.471Z,1006.13
2023-12-28T10:56:16.204Z,1006.12
2023-12-28T10:57:16.281Z,1006.16
2023-12-28T10:58:16.348Z,1006.13
2023-12-28T10:59:16.432Z,1006.21
2023-12-28T11:00:16.508Z,1006.11
2023-12-28T11:01:16.623Z,1006.16
2023-12-28T11:02:16.622Z,1006.14
2023-12-28T11:03:16.820Z,1006.20
2023-12-28T11:04:16.916Z,1006.15
2023-12-28T11:05:17.073Z,1006.13
2023-12-28T11:06:16.992Z,1006.04
2023-12-28T11:07:17.103Z,1006.12
2023-12-28T11:08:17.193Z,1006.02
2023-12-28T11:09:17.239Z,1006.09
2023-12-28T11:10:17.382Z,1005.95
2023-12-28T11:11:17.414Z,1006.01
2023-12-28T11:12:17.594Z,1006.11
2023-12-28T11:13:17.590Z,1006.08
2023-12-28T11:14:17.657Z,1006.03
2023-12-28T11:15:17.840Z,1006.03
2023-12-28T11:16:17.835Z,1005.92
2023-12-28T11:17:18.079Z,1005.95
2023-12-28T11:18:18.097Z,1006.01
2023-12-28T11:19:18.050Z,1005.92
2023-12-28T11:20:18.152Z,1005.97
2023-12-28T11:21:18.225Z,1005.97
2023-12-28T11:22:18.283Z,1005.97
2023-12-28T11:23:18.388Z,1006.00
2023-12-28T11:24:18.543Z,1005.99
2023-12-28T11:25:18.537Z,1005.98
2023-12-28T11:26:18.609Z,1005.92
2023-12-28T11:27:18.717Z,1005.97
2023-12-28T11:28:18.765Z,1006.03
2023-12-28T11:29:18.862Z,1006.04
2023-12-28T11:30:19.024Z,1005.97
2023-12-28T11:31:19.140Z,1005.95
2023-12-28T11:32:19.080Z,1005.95
2023-12-28T11:33:19.256Z,1005.95
2023-12-28T11:34:19.465Z,1005.88
2023-12-28T11:35:19.284Z,1005.83
2023-12-28T11:36:19.392Z,1005.91
2023-12-28T11:37:19.439Z,1005.93
2023-12-28T11:38:19.508Z,1005.82
2023-12-28T11:39:19.647Z,1005.82
2023-12-28T11:40:19.678Z,1005.87
2023-12-28T11:41:19.747Z,1005.71
2023-12-28T11:42:19.851Z,1005.80
2023-12-28T11:43:19.884Z,1005.77
2023-12-28T11:44:19.963Z,1005.72
2023-12-28T11:45:20.118Z,1005.78
2023-12-28T11:46:20.111Z,1005.76
2023-12-28T11:47:20.189Z,1005.76
2023-12-28T11:48:20.398Z,1005.71
2023-12-28T11:49:20.416Z,1005.71
2023-12-28T11:50:20.409Z,1005.74
2023-12-28T11:51:20.509Z,1005.73
2023-12-28T11:52:20.560Z,1005.69
2023-12-28T11:53:20.617Z,1005.70
2023-12-28T11:54:20.716Z,1005.76
2023-12-28T11:55:20.776Z,1005.78
2023-12-28T11:56:20.839Z,1005.68
2023-12-28T11:57:20.948Z,1005.71
2023-12-28T11:58:20.983Z,1005.77
2023-12-28T11:59:21.057Z,1005.70
2023-12-28T12:00:21.226Z,1005.81
2023-12-28T12:01:21.217Z,1005.75
2023-12-28T12:02:21.287Z,1005.72
2023-12-28T12:03:21.443Z,1005.59
2023-12-28T12:04:21.578Z,1005.67
2023-12-28T12:05:21.514Z,1005.75
2023-12-28T12:06:21.734Z,1005.64